Time;durP1;ratioP1;P1;durP2;ratioP2;P2;SDS_P1;SDS_P2;PMS_P1;PMS_P2;Temp;Humidity;BMP_temperature;BMP_pressure;BME280_temperature;BME280_humidity;BME280_pressure;Samples;Min_cycle;Max_cycle;Signal;HPM_P1;HPM_P2
2022/08/12 00:42:56;;;;;;;8.13;4.85;;;19.50;99.90;;;;;;6143914;23;20060;-87
2022/08/12 00:45:21;;;;;;;7.55;4.75;;;19.50;99.90;;;;;;6144535;23;20106;-87
2022/08/12 00:47:50;;;;;;;9.13;5.10;;;19.40;99.90;;;;;;6142957;23;20026;-87
2022/08/12 00:50:18;;;;;;;7.15;4.88;;;19.40;99.90;;;;;;6119456;23;20114;-87
2022/08/12 00:52:49;;;;;;;7.85;4.78;;;19.40;99.90;;;;;;6145722;23;20079;-87
2022/08/12 00:55:16;;;;;;;8.77;4.88;;;19.40;99.90;;;;;;6144178;23;20018;-87
2022/08/12 00:57:48;;;;;;;8.38;5.22;;;19.30;99.90;;;;;;6143733;23;20241;-86
2022/08/12 01:00:21;;;;;;;9.57;5.28;;;19.30;99.90;;;;;;6119509;23;20032;-87
2022/08/12 01:02:56;;;;;;;8.60;5.18;;;19.20;99.90;;;;;;6145337;23;20016;-86
2022/08/12 01:13:45;;;;;;;6.90;4.65;;;19.10;99.90;;;;;;6145590;23;20041;-87
2022/08/12 01:16:11;;;;;;;7.60;4.63;;;19.10;99.90;;;;;;6118956;23;20116;-87
2022/08/12 01:18:39;;;;;;;7.75;4.10;;;19.10;99.90;;;;;;6143739;23;20027;-87
2022/08/12 01:21:26;;;;;;;10.55;4.10;;;19.10;99.90;;;;;;6144410;23;20052;-86
2022/08/12 01:24:34;;;;;;;8.23;4.78;;;19.00;99.90;;;;;;6144979;22;20480;-86
2022/08/12 01:27:02;;;;;;;8.40;4.15;;;19.00;99.90;;;;;;6144110;23;20445;-87
2022/08/12 01:29:32;;;;;;;7.20;3.97;;;18.90;99.90;;;;;;6144734;22;20017;-86
2022/08/12 01:32:03;;;;;;;6.07;4.03;;;18.90;99.90;;;;;;6145308;23;20101;-87
2022/08/12 01:34:35;;;;;;;7.70;3.75;;;18.90;99.90;;;;;;6143895;23;20450;-87
2022/08/12 01:37:02;;;;;;;11.98;3.83;;;18.80;99.90;;;;;;6119384;23;20022;-87
2022/08/12 01:39:31;;;;;;;7.60;4.07;;;18.80;99.90;;;;;;6145974;23;20441;-86
2022/08/12 01:42:07;;;;;;;6.50;3.83;;;18.80;99.90;;;;;;6119278;23;20384;-86
2022/08/12 01:44:34;;;;;;;9.27;3.70;;;18.80;99.90;;;;;;6143376;23;20029;-86
2022/08/12 01:47:29;;;;;;;7.43;3.90;;;18.70;99.90;;;;;;6145410;23;20017;-87
2022/08/12 01:50:13;;;;;;;;;;;18.80;99.90;;;;;;6238526;23;20020;-87
2022/08/12 01:52:53;;;;;;;8.30;4.15;;;18.80;99.90;;;;;;6238088;23;19954;-86
2022/08/12 01:55:27;;;;;;;7.03;4.03;;;18.70;99.90;;;;;;6187994;23;20020;-86
2022/08/12 01:58:01;;;;;;;6.22;4.03;;;18.70;99.90;;;;;;6238439;23;20030;-86
2022/08/12 02:00:47;;;;;;;7.25;4.10;;;18.70;99.90;;;;;;6212972;23;20051;-87
2022/08/12 02:03:30;;;;;;;6.38;4.10;;;18.70;99.90;;;;;;6238761;23;20022;-86
2022/08/12 02:12:18;;;;;;;8.43;4.75;;;18.60;99.90;;;;;;6177727;23;20146;-87
2022/08/12 02:14:56;;;;;;;7.95;4.53;;;18.50;99.90;;;;;;6202038;23;20036;-87
2022/08/12 02:17:59;;;;;;;8.13;4.03;;;18.50;99.90;;;;;;6178361;23;20518;-87
2022/08/12 02:20:52;;;;;;;6.88;4.15;;;18.60;99.90;;;;;;6166091;23;20049;-86
2022/08/12 02:23:19;;;;;;;8.95;4.70;;;18.40;99.90;;;;;;6178280;23;20552;-86
2022/08/12 02:25:46;;;;;;;9.45;4.25;;;18.40;99.90;;;;;;6174443;23;20045;-87
2022/08/12 02:28:12;;;;;;;8.20;4.22;;;18.40;99.90;;;;;;6089450;23;20018;-86
2022/08/12 02:30:38;;;;;;;9.57;5.18;;;18.40;99.90;;;;;;6113935;23;20156;-87
2022/08/12 02:33:05;;;;;;;9.45;4.90;;;18.30;99.90;;;;;;6089424;23;20018;-86
2022/08/12 02:35:34;;;;;;;7.32;4.63;;;18.30;99.90;;;;;;6089898;23;20109;-86
2022/08/12 02:38:04;;;;;;;6.28;4.55;;;18.30;99.90;;;;;;6116223;23;20057;-87
2022/08/12 02:40:30;;;;;;;8.05;4.63;;;18.30;99.90;;;;;;6120484;23;20018;-87
2022/08/12 02:43:13;;;;;;;7.07;4.88;;;18.50;99.90;;;;;;6144071;23;20071;-87
2022/08/12 02:45:54;;;;;;;7.25;4.20;;;18.20;99.90;;;;;;6120383;23;20024;-87
2022/08/12 02:48:29;;;;;;;7.63;4.40;;;18.20;99.90;;;;;;6145452;23;20013;-87
2022/08/12 02:51:00;;;;;;;9.02;4.75;;;18.20;99.90;;;;;;6144677;23;20064;-87
2022/08/12 02:53:26;;;;;;;7.05;4.20;;;18.30;99.90;;;;;;6144660;23;20022;-87
2022/08/12 02:55:53;;;;;;;7.75;4.82;;;18.10;99.90;;;;;;6145965;23;20463;-87
2022/08/12 02:58:19;;;;;;;7.72;4.82;;;18.10;99.90;;;;;;6145982;22;20014;-88
2022/08/12 03:00:45;;;;;;;7.90;4.88;;;18.10;99.90;;;;;;6144429;22;20105;-88
2022/08/12 03:03:13;;;;;;;8.98;5.18;;;18.00;99.90;;;;;;6145393;23;20107;-86
2022/08/12 03:05:47;;;;;;;8.65;5.07;;;18.00;99.90;;;;;;6146100;23;20438;-87
2022/08/12 03:08:17;;;;;;;7.45;5.53;;;18.00;99.90;;;;;;6145263;23;20025;-88
2022/08/12 03:10:46;;;;;;;9.82;6.60;;;18.00;99.90;;;;;;6144741;23;20406;-87
2022/08/12 03:13:16;;;;;;;11.15;6.25;;;17.90;99.90;;;;;;6144335;23;20017;-88
2022/08/12 03:15:43;;;;;;;10.85;6.22;;;17.90;99.90;;;;;;6146696;23;20017;-87
2022/08/12 03:18:08;;;;;;;10.35;7.15;;;17.90;99.90;;;;;;6144927;23;20013;-88
2022/08/12 03:20:39;;;;;;;15.02;7.25;;;17.90;99.90;;;;;;6144462;23;20449;-87
2022/08/12 03:23:10;;;;;;;10.63;7.20;;;17.80;99.90;;;;;;6146473;23;20063;-87
2022/08/12 03:25:38;;;;;;;10.98;6.78;;;17.80;99.90;;;;;;6119319;23;20026;-87
2022/08/12 03:28:09;;;;;;;10.23;6.72;;;17.80;99.90;;;;;;6144365;23;20071;-87
2022/08/12 03:30:36;;;;;;;11.70;7.65;;;17.90;99.90;;;;;;6146431;22;20010;-88
2022/08/12 03:33:03;;;;;;;9.70;6.70;;;17.90;99.90;;;;;;6145278;23;20345;-87
2022/08/12 03:35:32;;;;;;;11.20;7.68;;;17.80;99.90;;;;;;6146629;23;20085;-87
2022/08/12 03:38:05;;;;;;;12.77;7.20;;;17.70;99.90;;;;;;6144760;23;20494;-87
2022/08/12 04:03:04;;;;;;;11.27;7.05;;;17.60;99.90;;;;;;6243781;22;20022;-87
2022/08/12 04:05:31;;;;;;;10.73;6.68;;;17.60;99.90;;;;;;6244407;22;20026;-87
2022/08/12 04:07:58;;;;;;;11.25;6.55;;;17.60;99.90;;;;;;6218121;22;20517;-87
2022/08/12 04:13:14;;;;;;;11.07;6.93;;;17.60;99.90;;;;;;6271186;22;20078;-87
2022/08/12 04:13:24;;;;;;;11.32;7.15;;;17.40;99.90;;;;;;6271127;22;20023;-87
2022/08/12 04:15:50;;;;;;;14.73;6.65;;;17.50;99.90;;;;;;6271101;22;20023;-87
2022/08/12 04:18:16;;;;;;;11.68;6.72;;;17.50;99.90;;;;;;6244024;22;20016;-87
2022/08/12 04:20:43;;;;;;;9.20;5.93;;;17.50;99.90;;;;;;6243416;22;20024;-87
2022/08/12 04:23:14;;;;;;;15.05;6.30;;;17.50;99.90;;;;;;6244473;22;20070;-87
2022/08/12 04:25:41;;;;;;;9.82;6.13;;;17.50;99.90;;;;;;6270424;22;20065;-87
2022/08/12 04:28:08;;;;;;;11.38;6.50;;;17.40;99.90;;;;;;6244474;22;20344;-87
2022/08/12 04:30:35;;;;;;;9.60;6.03;;;17.40;99.90;;;;;;6270942;22;20015;-87
2022/08/12 04:33:01;;;;;;;14.75;6.53;;;17.50;99.90;;;;;;6218334;22;20026;-87
2022/08/12 04:35:27;;;;;;;10.82;6.00;;;17.40;99.90;;;;;;6218409;22;20051;-87
2022/08/12 04:37:54;;;;;;;9.63;6.03;;;17.40;99.90;;;;;;6243762;22;20032;-88
2022/08/12 04:40:23;;;;;;;9.32;6.50;;;17.40;99.90;;;;;;6270187;22;20412;-88
2022/08/12 04:42:50;;;;;;;12.15;5.20;;;17.40;99.90;;;;;;6218353;22;20011;-87
2022/08/12 04:45:16;;;;;;;10.40;5.72;;;17.40;99.90;;;;;;6243306;22;20030;-87
2022/08/12 04:47:42;;;;;;;10.25;6.13;;;17.40;99.90;;;;;;6243142;22;20019;-87
2022/08/12 04:50:08;;;;;;;12.07;5.82;;;17.40;99.90;;;;;;6270631;22;20089;-87
2022/08/12 04:52:34;;;;;;;12.35;5.70;;;17.40;99.90;;;;;;6217506;22;20008;-88
2022/08/12 04:55:00;;;;;;;11.02;5.22;;;17.40;99.90;;;;;;6258798;22;20088;-86
2022/08/12 04:57:25;;;;;;;9.82;6.05;;;17.40;99.90;;;;;;6144427;23;20026;-88
2022/08/12 04:59:51;;;;;;;8.13;4.95;;;17.40;99.90;;;;;;6119481;23;20067;-87
2022/08/12 05:02:18;;;;;;;8.32;4.88;;;17.40;99.90;;;;;;6144185;23;20025;-87
2022/08/12 05:04:46;;;;;;;11.57;5.85;;;17.40;99.90;;;;;;6144079;23;20036;-88
2022/08/12 05:07:12;;;;;;;8.30;5.28;;;17.40;99.90;;;;;;6143544;23;20022;-87
2022/08/12 05:09:38;;;;;;;7.53;5.07;;;17.40;99.90;;;;;;6145499;23;20041;-88
2022/08/12 05:12:04;;;;;;;10.95;5.70;;;17.40;99.90;;;;;;6150213;22;20014;-87
2022/08/12 05:14:30;;;;;;;10.35;5.43;;;17.40;99.90;;;;;;6150149;23;20564;-87
2022/08/12 05:16:56;;;;;;;10.23;6.00;;;17.40;99.90;;;;;;6155333;23;20033;-88
2022/08/12 05:19:21;;;;;;;9.68;5.18;;;17.40;99.90;;;;;;6157822;23;20048;-86
2022/08/12 05:21:47;;;;;;;11.05;5.07;;;17.50;99.90;;;;;;6160284;22;20014;-86
2022/08/12 05:24:13;;;;;;;10.60;5.88;;;17.50;99.90;;;;;;6158010;23;20053;-87
2022/08/12 05:26:39;;;;;;;8.88;5.72;;;17.50;99.90;;;;;;6151150;23;20063;-87
2022/08/12 05:29:06;;;;;;;9.13;5.68;;;17.50;99.90;;;;;;6153756;23;20021;-87
2022/08/12 05:31:32;;;;;;;9.02;5.43;;;17.50;99.90;;;;;;6155960;23;20079;-88
2022/08/12 05:33:57;;;;;;;11.13;5.22;;;17.50;99.90;;;;;;6151210;23;20056;-87
2022/08/12 05:36:23;;;;;;;10.73;5.82;;;17.60;99.90;;;;;;6147967;22;20044;-88
2022/08/12 05:38:55;;;;;;;10.80;5.53;;;17.60;99.90;;;;;;6147843;22;20114;-87
2022/08/12 05:41:28;;;;;;;7.13;4.95;;;17.60;99.90;;;;;;6154744;22;20018;-87
2022/08/12 05:43:57;;;;;;;6.17;4.67;;;17.60;99.90;;;;;;6147301;22;20577;-88
2022/08/12 05:46:24;;;;;;;7.20;4.75;;;17.70;99.90;;;;;;6120586;23;20044;-87
2022/08/12 05:48:53;;;;;;;9.50;5.50;;;17.60;99.90;;;;;;6144499;23;20049;-87
2022/08/12 05:51:19;;;;;;;7.78;5.18;;;17.70;99.90;;;;;;6146768;23;20053;-87
2022/08/12 05:53:45;;;;;;;8.63;5.00;;;17.70;99.90;;;;;;6144913;22;20475;-87
2022/08/12 05:56:19;;;;;;;9.27;5.38;;;17.60;99.90;;;;;;6120596;23;20049;-88
2022/08/12 05:58:46;;;;;;;;;;;17.80;99.90;;;;;;6120912;23;20013;-87
2022/08/12 06:01:12;;;;;;;10.52;4.85;;;17.70;99.90;;;;;;6145379;23;19917;-87
2022/08/12 06:03:37;;;;;;;8.43;4.72;;;17.70;99.90;;;;;;6144984;23;20021;-87
2022/08/12 06:06:05;;;;;;;8.00;5.05;;;17.70;99.90;;;;;;6146438;22;20018;-87
2022/08/12 06:08:33;;;;;;;6.90;4.50;;;17.80;99.90;;;;;;6146856;23;20040;-87
2022/08/12 06:11:00;;;;;;;10.40;4.90;;;17.80;99.90;;;;;;6147084;23;20020;-87
2022/08/12 06:13:26;;;;;;;8.82;4.60;;;17.80;99.90;;;;;;6147189;23;20028;-88
2022/08/12 06:15:51;;;;;;;12.45;5.03;;;17.80;99.90;;;;;;6120471;23;20010;-87
2022/08/12 06:18:18;;;;;;;10.55;5.50;;;17.90;99.90;;;;;;6145422;23;20025;-87
2022/08/12 06:20:48;;;;;;;8.98;4.30;;;17.90;99.90;;;;;;6143949;23;20067;-87
2022/08/12 06:23:14;;;;;;;7.40;4.47;;;18.00;99.90;;;;;;6147023;23;20055;-88
2022/08/12 06:25:40;;;;;;;9.10;4.63;;;18.00;99.90;;;;;;6144806;23;20499;-87
2022/08/12 06:28:16;;;;;;;10.70;4.50;;;18.00;99.90;;;;;;6146578;23;20058;-88
2022/08/12 06:30:43;;;;;;;9.07;4.63;;;18.10;99.90;;;;;;6145551;23;20049;-88
2022/08/12 06:33:10;;;;;;;7.93;4.22;;;18.10;99.90;;;;;;6120376;23;20022;-87
2022/08/12 06:35:37;;;;;;;11.07;4.40;;;18.20;99.90;;;;;;6119769;23;20101;-87
2022/08/12 06:38:02;;;;;;;10.00;4.72;;;18.20;99.90;;;;;;6145346;23;20096;-88
2022/08/12 06:43:14;;;;;;;10.15;4.85;;;18.30;99.90;;;;;;6146738;23;20025;-88
2022/08/12 06:45:46;;;;;;;8.15;4.20;;;18.30;99.90;;;;;;6144748;23;20018;-87
2022/08/12 06:48:11;;;;;;;7.35;3.53;;;18.40;99.90;;;;;;6120240;23;20022;-88
2022/08/12 06:50:38;;;;;;;10.35;3.83;;;18.40;99.90;;;;;;6144391;23;20014;-87
2022/08/12 06:53:04;;;;;;;12.18;4.78;;;18.50;99.90;;;;;;6144934;23;20074;-87
2022/08/12 06:55:30;;;;;;;8.55;4.45;;;18.50;99.90;;;;;;6144883;23;20014;-87
2022/08/12 06:58:00;;;;;;;10.70;4.20;;;18.50;99.90;;;;;;6146390;23;20065;-87
2022/08/12 07:00:34;;;;;;;12.00;4.40;;;18.70;99.90;;;;;;6147048;23;20062;-88
2022/08/12 07:03:02;;;;;;;9.93;4.40;;;18.70;99.90;;;;;;6145408;23;20059;-87
2022/08/12 07:05:28;;;;;;;6.72;3.90;;;18.90;99.90;;;;;;6146660;23;20061;-87
2022/08/12 07:08:00;;;;;;;7.57;4.43;;;18.80;99.90;;;;;;6144940;23;20020;-87
2022/08/12 07:10:26;;;;;;;9.32;4.00;;;18.90;99.90;;;;;;6146941;23;20022;-88
2022/08/12 07:12:55;;;;;;;12.10;3.70;;;19.00;99.90;;;;;;6146092;23;20022;-87
2022/08/12 07:15:25;;;;;;;9.82;4.18;;;19.10;99.90;;;;;;6144903;23;20097;-87
2022/08/12 07:20:34;;;;;;;7.50;4.07;;;19.20;99.90;;;;;;6144855;23;20026;-87
2022/08/12 07:23:02;;;;;;;6.63;3.45;;;19.30;99.90;;;;;;6146621;22;20037;-88
2022/08/12 07:25:31;;;;;;;6.82;3.55;;;19.40;99.90;;;;;;6147182;23;20067;-88
2022/08/12 07:28:00;;;;;;;10.98;3.80;;;19.40;99.90;;;;;;6146490;23;20024;-87
2022/08/12 07:30:29;;;;;;;9.25;3.22;;;19.50;99.90;;;;;;6145113;23;20017;-89
2022/08/12 07:32:55;;;;;;;7.38;3.15;;;19.50;99.90;;;;;;6145831;23;20016;-88
2022/08/12 07:35:22;;;;;;;6.63;3.00;;;19.60;99.90;;;;;;6146999;22;20017;-88
2022/08/12 07:37:49;;;;;;;7.55;3.45;;;19.60;99.90;;;;;;6144600;23;20345;-89
2022/08/12 07:40:17;;;;;;;10.27;3.80;;;19.60;99.90;;;;;;6144810;23;20502;-88
2022/08/12 07:42:44;;;;;;;8.70;3.65;;;19.80;99.90;;;;;;6144562;23;20028;-88
2022/08/12 07:45:12;;;;;;;6.63;3.13;;;19.90;99.90;;;;;;6146557;23;20013;-88
2022/08/12 07:47:42;;;;;;;8.10;3.05;;;19.90;99.90;;;;;;6143982;23;20511;-88
2022/08/12 07:50:10;;;;;;;7.78;2.95;;;20.00;99.90;;;;;;6146546;23;20060;-88
2022/08/12 07:52:40;;;;;;;10.88;2.80;;;20.10;99.90;;;;;;6146180;22;20021;-88
2022/08/12 07:55:06;;;;;;;4.43;3.00;;;20.30;99.90;;;;;;6144610;23;20037;-88
2022/08/12 07:57:31;;;;;;;5.40;2.92;;;20.30;99.90;;;;;;6146664;23;20022;-88
2022/08/12 08:00:03;;;;;;;9.13;2.92;;;20.40;99.90;;;;;;6146507;22;20681;-88
2022/08/12 08:02:32;;;;;;;6.53;3.08;;;20.50;99.90;;;;;;6145485;23;20507;-88
2022/08/12 08:04:59;;;;;;;5.30;2.95;;;20.70;99.90;;;;;;6120170;23;20075;-89
2022/08/12 08:07:26;;;;;;;7.20;3.10;;;20.80;99.90;;;;;;6144361;23;20044;-88
2022/08/12 08:09:56;;;;;;;7.35;2.92;;;21.10;99.90;;;;;;6145965;23;20477;-89
2022/08/12 08:15:09;;;;;;;9.30;3.22;;;21.60;99.90;;;;;;6144656;23;20063;-88
2022/08/12 08:17:38;;;;;;;8.73;3.05;;;21.80;99.90;;;;;;6145045;23;20014;-89
2022/08/12 08:20:05;;;;;;;9.02;3.30;;;22.00;99.90;;;;;;6120043;23;20349;-89
2022/08/12 08:22:34;;;;;;;8.55;2.72;;;22.20;99.90;;;;;;6146298;23;20049;-88
2022/08/12 08:25:00;;;;;;;7.10;2.90;;;22.40;99.90;;;;;;6146267;22;20014;-89
2022/08/12 08:27:25;;;;;;;8.00;2.70;;;22.60;99.90;;;;;;6145016;23;20090;-89
2022/08/12 08:29:51;;;;;;;9.43;3.28;;;22.80;99.90;;;;;;6144417;23;20025;-89
2022/08/12 08:32:16;;;;;;;7.20;2.90;;;23.00;99.90;;;;;;6143696;23;20013;-89
2022/08/12 08:34:44;;;;;;;8.27;3.25;;;23.20;99.90;;;;;;6144589;23;20021;-89
2022/08/12 08:37:14;;;;;;;6.22;2.90;;;23.30;99.90;;;;;;6144621;23;20350;-89
2022/08/12 08:39:40;;;;;;;5.40;3.10;;;23.50;99.90;;;;;;6144304;23;20350;-89
2022/08/12 08:44:50;;;;;;;5.50;2.67;;;23.80;99.90;;;;;;6145405;23;20021;-89
2022/08/12 08:47:15;;;;;;;7.43;3.20;;;24.00;99.90;;;;;;6145004;23;20067;-88
2022/08/12 08:49:41;;;;;;;6.47;2.75;;;24.10;99.90;;;;;;6145835;22;20056;-89
2022/08/12 08:52:10;;;;;;;6.35;2.83;;;24.30;99.90;;;;;;6144603;23;20025;-89
2022/08/12 08:54:36;;;;;;;8.07;2.97;;;24.40;99.90;;;;;;6143572;22;20013;-89
2022/08/12 08:57:06;;;;;;;8.00;2.97;;;24.60;99.90;;;;;;6145572;23;20021;-89
2022/08/12 08:59:32;;;;;;;6.57;2.70;;;24.70;99.90;;;;;;6143838;22;20327;-89
2022/08/12 09:01:57;;;;;;;9.02;2.80;;;24.90;99.90;;;;;;6144649;23;20104;-88
2022/08/12 09:04:23;;;;;;;8.15;2.40;;;25.10;99.70;;;;;;6144062;23;20450;-90
2022/08/12 09:06:57;;;;;;;8.30;2.53;;;25.20;99.30;;;;;;6148323;22;20013;-89
2022/08/12 09:09:23;;;;;;;8.23;3.03;;;25.40;99.20;;;;;;6146802;23;20057;-89
2022/08/12 09:14:33;;;;;;;10.82;3.08;;;25.70;99.30;;;;;;6143575;23;20025;-90
2022/08/12 09:16:58;;;;;;;10.70;2.80;;;25.80;98.50;;;;;;6144446;22;20337;-90
2022/08/12 09:19:25;;;;;;;6.53;2.45;;;25.90;98.50;;;;;;6143779;23;20319;-89
2022/08/12 09:21:51;;;;;;;5.53;2.85;;;26.00;98.60;;;;;;6144042;23;20373;-89
2022/08/12 09:24:18;;;;;;;10.32;2.70;;;26.10;98.30;;;;;;6143854;23;20021;-90
2022/08/12 09:26:45;;;;;;;8.95;2.63;;;26.10;98.00;;;;;;6119182;23;20018;-89
2022/08/12 09:29:14;;;;;;;9.85;2.42;;;26.40;96.40;;;;;;6118843;23;20449;-89
2022/08/12 09:31:43;;;;;;;5.22;2.75;;;26.50;97.20;;;;;;6143850;23;20020;-90
2022/08/12 09:34:11;;;;;;;4.63;2.60;;;26.60;96.80;;;;;;6144011;23;20014;-89
2022/08/12 09:36:37;;;;;;;8.48;2.60;;;26.80;96.20;;;;;;6143473;23;20517;-90
2022/08/12 09:39:07;;;;;;;8.23;2.63;;;26.90;96.20;;;;;;6144314;23;20018;-89
2022/08/12 09:41:42;;;;;;;6.05;2.60;;;26.90;95.70;;;;;;6143227;23;20017;-90
2022/08/12 09:46:52;;;;;;;5.65;2.70;;;27.30;95.10;;;;;;6143436;23;20521;-90
2022/08/12 09:49:18;;;;;;;6.78;2.90;;;27.40;94.60;;;;;;6143971;23;20021;-89
2022/08/12 09:51:45;;;;;;;8.82;2.22;;;27.50;94.10;;;;;;6118577;23;20016;-89
2022/08/12 09:54:11;;;;;;;9.88;2.63;;;27.50;92.70;;;;;;6144024;23;20033;-89
2022/08/12 09:56:40;;;;;;;6.90;2.92;;;27.70;93.20;;;;;;6118535;23;20022;-89
2022/08/12 09:59:08;;;;;;;7.35;2.30;;;27.80;92.20;;;;;;6143139;23;20465;-90
2022/08/12 10:01:37;;;;;;;10.05;2.83;;;27.90;92.20;;;;;;6143255;22;20442;-89
2022/08/12 10:04:08;;;;;;;4.72;2.30;;;28.10;92.10;;;;;;6143653;23;20524;-90
2022/08/12 10:06:34;;;;;;;5.25;2.72;;;28.20;91.80;;;;;;6144376;22;20018;-90
2022/08/12 10:08:59;;;;;;;6.18;2.40;;;28.30;91.40;;;;;;6145367;23;20040;-90
2022/08/12 10:14:09;;;;;;;6.95;2.40;;;28.50;90.40;;;;;;6144382;23;20061;-90
2022/08/12 10:16:42;;;;;;;5.78;2.20;;;28.60;89.20;;;;;;6145076;23;20026;-90
2022/08/12 10:19:08;;;;;;;4.00;2.30;;;28.60;87.60;;;;;;6146950;23;20484;-89
2022/08/12 10:21:36;;;;;;;5.90;2.35;;;28.80;87.10;;;;;;6120293;23;20021;-90
2022/08/12 10:24:07;;;;;;;3.95;2.40;;;28.90;86.80;;;;;;6120452;23;20057;-90
2022/08/12 10:29:38;;;;;;;6.57;2.20;;;29.10;85.30;;;;;;6147157;23;20021;-90
2022/08/12 10:32:16;;;;;;;3.42;1.85;;;29.30;83.50;;;;;;6145092;22;20022;-89
2022/08/12 10:34:42;;;;;;;4.60;2.05;;;29.30;81.00;;;;;;6145173;23;20041;-90
2022/08/12 10:37:08;;;;;;;6.30;2.10;;;29.50;82.50;;;;;;6144837;23;20033;-90
2022/08/12 10:39:36;;;;;;;4.88;2.20;;;29.70;81.00;;;;;;6146566;22;20020;-90
2022/08/12 10:44:59;;;;;;;5.55;2.13;;;29.90;77.00;;;;;;6144905;23;20021;-90
2022/08/12 10:47:29;;;;;;;8.48;2.17;;;30.00;76.70;;;;;;6144834;23;20087;-90
2022/08/12 10:49:55;;;;;;;6.90;1.90;;;30.10;76.60;;;;;;6146632;23;20040;-90
2022/08/12 10:52:23;;;;;;;5.88;2.00;;;30.20;77.20;;;;;;6145408;23;20100;-89
2022/08/12 10:54:49;;;;;;;6.28;2.00;;;30.20;74.80;;;;;;6146116;23;20017;-90
2022/08/12 10:57:16;;;;;;;5.32;2.22;;;30.30;76.50;;;;;;6145806;23;20457;-90
2022/08/12 10:59:42;;;;;;;5.10;1.73;;;30.40;74.80;;;;;;6146815;23;20319;-90
2022/08/12 11:02:13;;;;;;;3.53;1.92;;;30.40;75.00;;;;;;6120318;23;20052;-90
2022/08/12 11:04:39;;;;;;;3.22;1.75;;;30.60;74.40;;;;;;6144899;23;20022;-90
2022/08/12 11:07:06;;;;;;;7.72;2.05;;;30.60;73.00;;;;;;6144778;23;20017;-89
2022/08/12 11:09:33;;;;;;;3.95;2.05;;;30.70;72.90;;;;;;6145770;22;20100;-90
2022/08/12 11:12:05;;;;;;;4.38;1.67;;;30.70;72.80;;;;;;6120388;23;20485;-90
2022/08/12 11:14:35;;;;;;;4.30;1.65;;;30.80;72.60;;;;;;6147445;23;20055;-90
2022/08/12 11:17:06;;;;;;;5.18;1.80;;;30.90;71.90;;;;;;6144837;23;20084;-91
2022/08/12 11:19:33;;;;;;;3.17;1.65;;;31.00;71.60;;;;;;6120534;23;20028;-90
2022/08/12 11:22:00;;;;;;;3.28;1.80;;;31.10;72.20;;;;;;6144730;23;20028;-90
2022/08/12 11:24:26;;;;;;;3.80;1.55;;;31.10;70.90;;;;;;6146182;22;20029;-90
2022/08/12 11:26:53;;;;;;;5.85;1.70;;;31.20;70.40;;;;;;6146530;23;20053;-90
2022/08/12 11:29:21;;;;;;;8.65;1.60;;;31.30;69.20;;;;;;6146476;23;20025;-90
2022/08/12 11:31:48;;;;;;;3.58;1.58;;;31.40;69.10;;;;;;6144491;23;20017;-89
2022/08/12 11:34:15;;;;;;;3.25;1.45;;;31.50;69.10;;;;;;6145357;23;20024;-90
2022/08/12 11:36:59;;;;;;;3.15;1.58;;;31.60;69.30;;;;;;6146456;23;20071;-90
2022/08/12 11:39:26;;;;;;;8.68;1.70;;;31.70;66.80;;;;;;6119904;23;20071;-91
2022/08/12 11:41:52;;;;;;;8.25;1.60;;;31.80;68.90;;;;;;6144151;23;20052;-90
2022/08/12 11:44:18;;;;;;;3.42;1.60;;;31.90;69.10;;;;;;6120545;23;20022;-90
2022/08/12 11:46:44;;;;;;;3.53;1.77;;;32.00;68.40;;;;;;6146077;23;20035;-91
2022/08/12 11:49:10;;;;;;;4.07;1.83;;;32.10;69.10;;;;;;6120537;23;20064;-90
2022/08/12 11:51:37;;;;;;;4.55;1.38;;;32.20;69.00;;;;;;6146706;23;20018;-90
2022/08/12 11:54:03;;;;;;;2.40;1.02;;;32.30;68.00;;;;;;6145437;23;20014;-90
2022/08/12 11:56:29;;;;;;;6.70;1.67;;;32.30;67.70;;;;;;6146352;22;20349;-90
2022/08/12 11:58:55;;;;;;;4.53;1.55;;;32.40;67.40;;;;;;6146149;23;20014;-90
2022/08/12 12:01:21;;;;;;;3.90;1.42;;;32.50;66.40;;;;;;6144307;23;20481;-91
2022/08/12 12:03:47;;;;;;;5.30;1.63;;;32.50;65.50;;;;;;6146423;23;20017;-91
2022/08/12 12:06:14;;;;;;;4.40;1.40;;;32.60;65.30;;;;;;6146773;23;20059;-91
2022/08/12 12:08:39;;;;;;;6.30;2.03;;;32.60;65.10;;;;;;6143907;23;20421;-91
2022/08/12 12:11:05;;;;;;;6.15;1.60;;;32.60;64.60;;;;;;6145000;23;20047;-90
2022/08/12 12:13:31;;;;;;;5.57;1.80;;;32.60;64.30;;;;;;6145044;23;20341;-90
2022/08/12 12:15:56;;;;;;;9.25;2.05;;;32.60;63.90;;;;;;6146315;22;20021;-90
2022/08/12 12:18:30;;;;;;;8.25;1.60;;;32.60;64.70;;;;;;6144753;23;20484;-90
2022/08/12 12:21:01;;;;;;;3.53;1.33;;;32.60;63.40;;;;;;6146356;23;20053;-91
2022/08/12 12:23:28;;;;;;;4.40;1.30;;;32.70;65.20;;;;;;6145829;23;20018;-90
2022/08/12 12:25:53;;;;;;;4.00;1.60;;;32.70;64.60;;;;;;6144808;23;20083;-91
2022/08/12 12:28:19;;;;;;;6.78;2.10;;;32.70;62.70;;;;;;6145891;22;20013;-90
2022/08/12 12:30:44;;;;;;;2.33;1.33;;;32.80;63.00;;;;;;6144492;23;20349;-90
2022/08/12 12:33:11;;;;;;;6.15;1.58;;;32.80;62.90;;;;;;6120110;23;20021;-91
2022/08/12 12:35:37;;;;;;;5.60;1.70;;;32.90;63.90;;;;;;6119428;23;20025;-90
2022/08/12 12:38:05;;;;;;;3.70;1.75;;;33.00;64.70;;;;;;6144040;22;20017;-91
2022/08/12 12:40:32;;;;;;;4.63;1.40;;;33.00;64.40;;;;;;6145100;23;20014;-90
2022/08/12 12:42:58;;;;;;;5.07;1.70;;;33.00;64.20;;;;;;6145805;23;20093;-91
2022/08/12 12:45:25;;;;;;;5.35;1.60;;;33.10;65.40;;;;;;6144560;23;20044;-91
2022/08/12 12:48:01;;;;;;;7.78;1.70;;;33.10;63.90;;;;;;6145986;22;20013;-91
2022/08/12 12:50:33;;;;;;;5.20;1.85;;;33.10;63.20;;;;;;6144350;23;20021;-91
2022/08/12 12:52:59;;;;;;;4.22;1.35;;;33.20;62.30;;;;;;6145853;23;20024;-90
2022/08/12 12:55:26;;;;;;;5.82;1.50;;;33.30;63.10;;;;;;6144288;22;20350;-90
2022/08/12 12:57:52;;;;;;;4.03;1.50;;;33.30;62.50;;;;;;6145222;22;20457;-90
2022/08/12 13:00:19;;;;;;;3.10;1.40;;;33.30;61.80;;;;;;6144564;23;20044;-91
2022/08/12 13:02:57;;;;;;;4.68;1.42;;;33.30;61.10;;;;;;6143935;23;20009;-90
2022/08/12 13:05:35;;;;;;;3.08;1.50;;;33.30;60.70;;;;;;6146204;23;20014;-90
2022/08/12 13:08:16;;;;;;;4.00;1.77;;;33.30;60.30;;;;;;6144459;22;20053;-90
2022/08/12 13:10:42;;;;;;;3.10;1.52;;;33.30;61.90;;;;;;6144483;23;20163;-90
2022/08/12 13:13:07;;;;;;;3.20;1.42;;;33.30;61.40;;;;;;6144818;23;20020;-90
2022/08/12 13:15:33;;;;;;;2.47;1.35;;;33.40;62.30;;;;;;6145797;22;20025;-90
2022/08/12 13:18:03;;;;;;;3.92;1.52;;;33.40;61.80;;;;;;6146108;22;20028;-91
2022/08/12 13:20:30;;;;;;;5.28;1.58;;;33.50;63.20;;;;;;6145750;23;20025;-90
2022/08/12 13:22:56;;;;;;;6.25;1.70;;;33.60;60.90;;;;;;6119415;23;20020;-90
2022/08/12 13:25:23;;;;;;;4.40;1.50;;;33.60;61.10;;;;;;6144364;23;20048;-91
2022/08/12 13:27:49;;;;;;;5.07;1.80;;;33.60;60.90;;;;;;6143789;23;20045;-90
2022/08/12 13:30:20;;;;;;;4.60;1.70;;;33.60;60.80;;;;;;6119656;23;20017;-90
2022/08/12 13:32:56;;;;;;;3.67;1.83;;;33.70;59.40;;;;;;6143937;23;20105;-90
2022/08/12 13:35:22;;;;;;;2.72;1.70;;;33.70;61.30;;;;;;6119398;23;20018;-90
2022/08/12 13:37:52;;;;;;;3.47;1.90;;;33.60;65.60;;;;;;6145227;23;20063;-91
2022/08/12 13:40:19;;;;;;;4.40;1.73;;;33.80;64.70;;;;;;6146494;23;20024;-91
2022/08/12 13:42:48;;;;;;;7.90;1.88;;;33.80;61.50;;;;;;6145177;23;20018;-91
2022/08/12 13:45:15;;;;;;;4.05;1.70;;;33.90;62.90;;;;;;6145403;23;20406;-90
2022/08/12 13:48:01;;;;;;;10.40;1.85;;;33.90;61.60;;;;;;6145262;23;20053;-91
2022/08/12 13:50:32;;;;;;;3.03;1.58;;;33.90;59.30;;;;;;6120564;23;20021;-91
2022/08/12 13:53:00;;;;;;;5.30;1.85;;;33.90;60.60;;;;;;6147479;23;20498;-91
2022/08/12 13:55:27;;;;;;;4.30;1.85;;;33.90;61.00;;;;;;6146578;23;20445;-90
2022/08/12 13:57:53;;;;;;;4.63;1.80;;;33.90;61.90;;;;;;6144743;23;20127;-90
2022/08/12 14:00:20;;;;;;;6.00;1.83;;;34.00;61.10;;;;;;6145326;23;20047;-90
2022/08/12 14:02:46;;;;;;;6.57;1.70;;;34.00;60.50;;;;;;6145011;23;20017;-90
2022/08/12 14:05:13;;;;;;;3.50;1.90;;;34.00;61.50;;;;;;6144565;23;20053;-91
2022/08/12 14:07:57;;;;;;;4.40;1.63;;;33.90;60.10;;;;;;6146912;23;20039;-91
2022/08/12 14:10:35;;;;;;;5.47;1.70;;;33.90;60.00;;;;;;6120717;23;20060;-90
2022/08/12 14:13:01;;;;;;;2.88;1.60;;;33.90;60.70;;;;;;6145249;23;20449;-91
2022/08/12 14:15:27;;;;;;;7.53;1.80;;;33.80;61.70;;;;;;6147184;22;20032;-90
2022/08/12 14:17:53;;;;;;;4.30;1.88;;;33.90;60.30;;;;;;6144694;23;20025;-90
2022/08/12 14:20:18;;;;;;;4.93;1.85;;;33.80;60.00;;;;;;6144695;23;20022;-91
2022/08/12 14:22:44;;;;;;;5.70;2.55;;;33.80;61.70;;;;;;6144654;23;20045;-90
2022/08/12 14:25:10;;;;;;;2.97;1.88;;;33.80;62.70;;;;;;6145765;23;20025;-90
2022/08/12 14:27:36;;;;;;;2.45;1.60;;;33.90;60.80;;;;;;6144866;23;20017;-91
2022/08/12 14:30:04;;;;;;;7.25;1.98;;;33.90;60.50;;;;;;6144795;23;20033;-90
2022/08/12 14:32:33;;;;;;;5.80;1.65;;;33.90;60.30;;;;;;6145558;23;20009;-91
2022/08/12 14:34:58;;;;;;;5.43;1.90;;;33.90;60.40;;;;;;6146942;23;20021;-90
2022/08/12 14:37:24;;;;;;;5.32;1.83;;;33.90;61.10;;;;;;6145510;23;20022;-91